CW9928 Weather Reports


Display with metric or nautical units.
time (UTC)temp
F
wind
direction
speed
MPH
gust
MPH
rain 1hr
in
rain 24hr
in
rain mn
in
humidity
%
barometer
mb
20180624033151 61 324 0.0 0.0 0.00 0.09 0.09 92 1006.6
20180624032151 61 324 0.0 0.0 0.00 0.09 0.09 92 1006.5
20180624031151 62 324 0.0 0.0 0.00 0.09 0.09 91 1006.6
20180624030151 62 324 0.0 0.0 0.00 0.09 0.09 91 1006.7
20180624025151 63 324 0.0 2.0 0.00 0.09 0.09 91 1006.7
20180624024150 64 324 0.0 4.0 0.01 0.09 0.09 91 1006.6
20180624023150 65 330 0.0 2.0 0.02 0.09 0.09 91 1006.7
20180624022151 65 330 0.0 4.0 0.04 0.09 0.09 91 1006.6
20180624021151 65 24 0.0 0.0 0.04 0.11 0.09 91 1006.4
20180624020150 65 24 0.0 0.0 0.04 0.12 0.09 91 1006.4
20180624015151 65 24 0.0 0.0 0.04 0.13 0.09 90 1006.1
20180624014151 65 24 0.0 0.0 0.03 0.12 0.08 89 1006.2
20180624013151 66 24 0.0 0.0 0.02 0.12 0.07 89 1005.9
20180624012150 66 24 0.0 0.0 0.00 0.10 0.05 88 1006.1
20180624011151 66 24 0.0 0.0 0.00 0.10 0.05 87 1006.1
20180624010151 66 24 0.0 0.0 0.00 0.10 0.05 86 1006.0
20180624005150 67 24 0.0 1.0 0.00 0.10 0.05 86 1005.9
20180624004150 67 24 1.0 1.0 0.00 0.10 0.05 85 1005.8
20180624003150 67 24 0.0 5.0 0.00 0.10 0.05 84 1005.7
20180624002150 68 47 0.0 4.0 0.00 0.10 0.05 84 1005.6
20180624001151 68 44 0.0 4.0 0.00 0.10 0.05 83 1005.6
20180624000150 69 43 0.0 2.0 0.00 0.10 0.05 84 1005.5
20180623235151 69 41 0.0 0.0 0.00 0.10 0.05 84 1005.2
20180623234151 70 41 0.0 0.0 0.00 0.10 0.05 84 1005.2
20180623233152 70 41 0.0 2.0 0.00 0.10 0.05 84 1005.1
20180623232150 70 41 0.0 6.0 0.00 0.10 0.05 83 1005.0
20180623231150 70 26 1.0 5.0 0.00 0.10 0.05 84 1004.8
20180623230150 69 18 5.0 5.0 0.00 0.10 0.05 85 1004.7
20180623225150 69 69 0.0 5.0 0.00 0.10 0.05 84 1004.7
20180623224150 69 28 2.0 9.0 0.00 0.10 0.05 84 1004.6
20180623223151 69 28 4.0 6.0 0.00 0.10 0.05 84 1004.7
20180623222150 69 38 1.0 5.0 0.00 0.10 0.05 84 1004.7
20180623221150 70 16 5.0 6.0 0.00 0.10 0.05 84 1004.7
20180623220150 70 28 5.0 6.0 0.00 0.10 0.05 83 1004.8
20180623215151 71 49 3.0 7.0 0.00 0.10 0.05 83 1004.9
20180623214150 71 33 2.0 7.0 0.00 0.10 0.05 84 1004.8
20180623213150 71 24 2.0 6.0 0.00 0.10 0.05 83 1004.6
20180623212150 71 31 2.0 8.0 0.00 0.11 0.05 83 1004.7
20180623211151 71 26 4.0 7.0 0.00 0.11 0.05 84 1004.5
20180623210150 71 21 3.0 6.0 0.00 0.11 0.05 85 1004.7
20180623205150 71 35 5.0 7.0 0.00 0.11 0.05 85 1004.9
20180623204150 71 38 2.0 6.0 0.00 0.11 0.05 85 1004.9
20180623203150 71 22 0.0 6.0 0.00 0.11 0.05 85 1004.9
20180623202150 72 34 0.0 8.0 0.00 0.11 0.05 86 1004.9
20180623201150 71 49 0.0 5.0 0.00 0.11 0.05 87 1004.9
20180623200150 71 46 0.0 6.0 0.00 0.11 0.05 86 1004.9
20180623195150 71 65 0.0 2.0 0.00 0.11 0.05 87 1004.9
20180623194150 70 65 0.0 4.0 0.00 0.11 0.05 86 1004.9
20180623193150 70 55 0.0 2.0 0.00 0.11 0.05 86 1004.9
20180623192150 70 56 0.0 1.0 0.00 0.11 0.05 88 1005.0
20180623191150 70 56 0.0 0.0 0.00 0.11 0.05 89 1004.9
20180623190150 69 56 0.0 2.0 0.00 0.11 0.05 89 1005.2
20180623185150 69 56 2.0 4.0 0.00 0.11 0.05 88 1005.1
20180623184150 69 44 0.0 3.0 0.00 0.11 0.05 91 1005.1
20180623183150 69 42 0.0 4.0 0.00 0.11 0.05 91 1004.9
20180623182150 68 40 4.0 4.0 0.01 0.11 0.05 91 1005.0
20180623181150 68 40 0.0 4.0 0.01 0.11 0.05 91 1005.1
20180623180150 68 40 0.0 2.0 0.01 0.11 0.05 90 1005.3
20180623175150 68 40 0.0 0.0 0.01 0.11 0.05 90 1005.4
20180623174150 68 40 0.0 4.0 0.01 0.11 0.05 90 1005.4
20180623173150 68 40 0.0 0.0 0.01 0.11 0.05 90 1005.4
20180623172150 68 40 0.0 0.0 0.00 0.10 0.04 90 1005.5
20180623171150 68 40 0.0 0.0 0.00 0.10 0.04 91 1005.4
20180623170150 68 40 0.0 0.0 0.00 0.10 0.04 90 1005.6
20180623165150 67 40 0.0 1.0 0.00 0.10 0.04 90 1005.7
20180623164150 67 40 0.0 4.0 0.00 0.10 0.04 90 1005.8
20180623163150 67 35 0.0 5.0 0.00 0.10 0.04 90 1005.9
20180623162150 67 47 4.0 4.0 0.00 0.10 0.04 91 1005.9
20180623161150 66 45 0.0 3.0 0.00 0.10 0.04 91 1005.9
20180623160153 66 44 0.0 0.0 0.00 0.10 0.04 92 1005.9
20180623155150 66 44 0.0 1.0 0.00 0.10 0.04 92 1006.0
20180623154150 66 44 0.0 2.0 0.00 0.10 0.04 91 1006.0
20180623153150 66 38 0.0 0.0 0.00 0.10 0.04 92 1006.0
20180623152150 65 38 0.0 4.0 0.00 0.10 0.04 92 1006.0
20180623151150 65 37 0.0 2.0 0.00 0.10 0.04 92 1006.0
20180623150150 65 37 0.0 0.0 0.00 0.10 0.04 92 1006.1
20180623145150 65 37 0.0 0.0 0.00 0.10 0.04 92 1006.1
20180623144150 65 37 0.0 2.0 0.00 0.10 0.04 92 1006.1
20180623143150 65 37 0.0 0.0 0.00 0.10 0.04 93 1006.2
20180623142150 65 37 0.0 0.0 0.00 0.10 0.04 92 1006.3
20180623141150 64 37 0.0 0.0 0.00 0.10 0.04 92 1006.3
20180623140150 64 37 0.0 0.0 0.00 0.10 0.04 92 1006.3
20180623135150 64 37 0.0 0.0 0.00 0.10 0.04 92 1006.4
20180623134150 64 37 0.0 2.0 0.00 0.10 0.04 92 1006.6
20180623133150 64 37 0.0 0.0 0.00 0.10 0.04 93 1006.6
20180623132150 64 37 0.0 0.0 0.00 0.10 0.04 93 1006.6
20180623131150 63 37 0.0 0.0 0.00 0.10 0.04 93 1006.6
20180623130150 63 37 0.0 0.0 0.00 0.10 0.04 93 1006.6
20180623125150 63 37 0.0 0.0 0.00 0.10 0.04 93 1006.6
20180623124150 63 37 0.0 0.0 0.00 0.10 0.04 93 1006.6
20180623123150 63 37 0.0 3.0 0.00 0.10 0.04 93 1006.6
20180623122150 63 38 0.0 0.0 0.00 0.10 0.04 93 1006.7
20180623121150 63 38 0.0 3.0 0.00 0.10 0.04 93 1006.7
20180623120150 63 34 0.0 1.0 0.01 0.10 0.04 93 1006.6
20180623115150 63 34 0.0 0.0 0.01 0.10 0.04 93 1006.6
20180623114150 63 34 0.0 0.0 0.01 0.10 0.04 92 1006.9
20180623113151 63 34 0.0 0.0 0.01 0.10 0.04 93 1006.9
20180623112150 63 34 0.0 0.0 0.01 0.10 0.04 93 1006.9
20180623111152 63 34 0.0 0.0 0.01 0.10 0.04 92 1006.8
20180623110150 62 34 0.0 0.0 0.00 0.09 0.03 92 1006.9
20180623105150 62 34 0.0 0.0 0.00 0.09 0.03 93 1006.8
20180623104150 62 34 0.0 0.0 0.00 0.09 0.03 93 1006.9
20180623103150 62 34 0.0 0.0 0.00 0.09 0.03 93 1006.9
20180623102150 62 34 0.0 2.0 0.00 0.09 0.03 93 1007.0
20180623101150 63 34 0.0 0.0 0.00 0.09 0.03 93 1006.9
20180623100149 63 34 0.0 1.0 0.01 0.09 0.03 93 1006.9
20180623095150 63 34 0.0 0.0 0.01 0.09 0.03 93 1007.0
20180623094150 63 34 0.0 1.0 0.01 0.09 0.03 93 1007.0
20180623093150 63 33 0.0 0.0 0.01 0.09 0.03 93 1007.0
20180623092150 63 33 0.0 1.0 0.01 0.09 0.03 93 1007.1
20180623091150 63 33 0.0 0.0 0.01 0.09 0.03 93 1007.2
20180623090150 63 33 0.0 0.0 0.00 0.08 0.02 93 1007.2
20180623085150 63 33 0.0 0.0 0.00 0.08 0.02 93 1007.2
20180623084150 63 33 0.0 0.0 0.00 0.08 0.02 93 1007.2
20180623083150 63 33 0.0 0.0 0.00 0.08 0.02 93 1007.2
20180623082150 63 33 0.0 3.0 0.00 0.08 0.02 93 1007.3
20180623081150 63 32 0.0 0.0 0.00 0.08 0.02 93 1007.3
20180623080151 63 32 0.0 0.0 0.00 0.08 0.02 93 1007.5
20180623075150 64 32 0.0 0.0 0.00 0.08 0.02 93 1007.6
20180623074150 64 32 0.0 0.0 0.00 0.08 0.02 93 1007.6
20180623073151 64 32 0.0 0.0 0.00 0.08 0.02 93 1007.7
20180623072150 64 32 0.0 0.0 0.00 0.08 0.02 93 1007.8
20180623071150 64 32 0.0 0.0 0.01 0.08 0.02 93 1007.9
20180623070149 64 32 0.0 0.0 0.02 0.08 0.02 92 1008.0
20180623065150 64 32 0.0 0.0 0.02 0.08 0.02 92 1008.2
20180623064150 64 32 0.0 0.0 0.02 0.08 0.02 93 1008.3
20180623063149 64 32 0.0 0.0 0.02 0.08 0.02 93 1008.4
20180623062150 64 32 0.0 1.0 0.02 0.08 0.02 93 1008.3
20180623061149 64 32 0.0 1.0 0.01 0.07 0.01 92 1008.4
20180623060150 64 32 0.0 1.0 0.00 0.06 0.00 92 1008.5
20180623055150 64 32 0.0 0.0 0.00 0.06 0.00 93 1008.7
20180623054149 64 32 0.0 0.0 0.00 0.06 0.00 92 1008.7
20180623053149 64 32 0.0 0.0 0.00 0.06 0.00 93 1008.8
20180623052150 64 32 0.0 0.0 0.00 0.06 0.00 93 1008.9
20180623051150 64 32 0.0 0.0 0.00 0.06 0.00 93 1009.1
20180623050150 64 32 0.0 0.0 0.00 0.06 0.00 93 1009.1
20180623045149 64 32 0.0 1.0 0.00 0.06 0.00 93 1009.0
20180623044150 64 32 0.0 0.0 0.00 0.06 0.00 93 1009.2
20180623043149 64 32 0.0 0.0 0.00 0.06 0.00 92 1009.4
20180623042150 65 32 0.0 2.0 0.00 0.06 0.00 92 1009.5
20180623041150 65 32 0.0 3.0 0.00 0.06 0.00 92 1009.6
20180623035143 65 20 0.0 1.0 0.00 0.06 0.06 92 1009.6
20180623034143 65 19 0.0 2.0 0.00 0.06 0.06 92 1009.6